createdAt,value
2018-08-14T00:04:50.418Z,99222.13
2018-08-14T00:09:55.412Z,99219.33
2018-08-14T00:15:00.381Z,99235.60
2018-08-14T00:20:06.767Z,99221.95
2018-08-14T00:25:11.548Z,99218.01
2018-08-14T00:30:24.887Z,99223.44
2018-08-14T00:35:29.977Z,99223.95
2018-08-14T00:40:34.963Z,99221.02
2018-08-14T00:45:39.854Z,99226.67
2018-08-14T00:50:44.548Z,99227.24
2018-08-14T00:55:49.350Z,99228.39
2018-08-14T01:00:54.162Z,99236.08
2018-08-14T01:05:58.972Z,99235.12
2018-08-14T01:11:03.792Z,99237.33
2018-08-14T01:16:08.712Z,99235.18
2018-08-14T01:21:13.635Z,99233.52
2018-08-14T01:26:18.397Z,99242.53
2018-08-14T01:31:23.292Z,99245.47
2018-08-14T01:36:28.096Z,99246.27
2018-08-14T01:41:32.774Z,99243.86
2018-08-14T01:46:37.617Z,99241.18
2018-08-14T01:51:42.361Z,99249.41
2018-08-14T01:56:47.151Z,99243.89
2018-08-14T02:01:51.883Z,99250.43
2018-08-14T02:06:56.650Z,99258.25
2018-08-14T02:12:01.528Z,99257.48
2018-08-14T02:17:06.759Z,99261.53
2018-08-14T02:22:11.443Z,99260.78
2018-08-14T02:27:16.266Z,99267.22
2018-08-14T02:32:20.957Z,99271.31
2018-08-14T02:37:25.916Z,99269.48
2018-08-14T02:42:30.946Z,99267.52
2018-08-14T02:47:35.764Z,99272.65
2018-08-14T02:52:40.677Z,99278.30
2018-08-14T02:57:45.538Z,99280.44
2018-08-14T03:02:50.459Z,99266.68
2018-08-14T03:07:55.301Z,99266.59
2018-08-14T03:13:00.190Z,99273.05
2018-08-14T03:18:05.109Z,99281.75
2018-08-14T03:23:10.925Z,99289.95
2018-08-14T03:28:15.727Z,99291.22
2018-08-14T03:33:20.456Z,99290.59
2018-08-14T03:38:25.224Z,99287.39
2018-08-14T03:43:30.105Z,99294.94
2018-08-14T03:48:34.824Z,99308.44
2018-08-14T03:53:39.574Z,99312.48
2018-08-14T03:58:44.376Z,99315.85
2018-08-14T04:03:49.187Z,99331.30
2018-08-14T04:08:54.156Z,99326.14
2018-08-14T04:13:58.943Z,99335.38
2018-08-14T04:19:03.640Z,99341.38
2018-08-14T04:24:08.486Z,99346.31
2018-08-14T04:29:13.245Z,99348.30
2018-08-14T04:34:18.003Z,99353.45
2018-08-14T04:39:22.825Z,99360.03
2018-08-14T04:44:27.586Z,99364.94
2018-08-14T04:49:32.393Z,99370.03
2018-08-14T04:54:37.268Z,99378.32
2018-08-14T04:59:42.128Z,99391.57
2018-08-14T05:04:46.840Z,99383.77
2018-08-14T05:09:51.517Z,99391.59
2018-08-14T05:14:56.231Z,99404.70
2018-08-14T05:20:01.156Z,99402.95
2018-08-14T05:25:06.889Z,99404.95
2018-08-14T05:30:15.819Z,99408.91
2018-08-14T05:35:20.589Z,99406.66
2018-08-14T05:40:25.396Z,99407.02
2018-08-14T05:45:30.156Z,99412.23
2018-08-14T05:50:34.832Z,99403.55
2018-08-14T05:55:39.559Z,99403.92
2018-08-14T06:00:44.309Z,99415.16
2018-08-14T06:05:49.082Z,99417.86
2018-08-14T06:10:53.985Z,99420.09
2018-08-14T06:15:58.833Z,99425.28
2018-08-14T06:21:03.647Z,99427.13
2018-08-14T06:26:09.523Z,99438.53
2018-08-14T06:31:14.383Z,99451.30
2018-08-14T06:36:19.155Z,99453.72
2018-08-14T06:41:24.063Z,99447.16
2018-08-14T06:46:29.133Z,99456.11
2018-08-14T06:51:33.889Z,99458.69
2018-08-14T06:56:38.838Z,99474.14
2018-08-14T07:01:43.644Z,99478.11
2018-08-14T07:06:48.509Z,99472.86
2018-08-14T07:11:53.327Z,99471.50
2018-08-14T07:16:58.174Z,99464.53
2018-08-14T07:22:02.926Z,99465.86
2018-08-14T07:27:07.679Z,99472.72
2018-08-14T07:32:12.484Z,99472.06
2018-08-14T07:37:17.181Z,99473.93
2018-08-14T07:42:21.862Z,99482.83
2018-08-14T07:47:26.585Z,99481.06
2018-08-14T07:52:31.503Z,99478.34
2018-08-14T07:57:36.481Z,99489.45
2018-08-14T08:02:41.436Z,99489.64
2018-08-14T08:07:46.236Z,99492.10
2018-08-14T08:12:50.984Z,99504.39
2018-08-14T08:17:55.646Z,99506.11
2018-08-14T08:23:01.727Z,99510.06
2018-08-14T08:28:06.614Z,99510.41
2018-08-14T08:33:11.630Z,99519.48
2018-08-14T08:38:16.388Z,99523.95
2018-08-14T08:43:21.107Z,99522.27
2018-08-14T08:48:25.802Z,99519.91
2018-08-14T08:53:30.568Z,99511.77
2018-08-14T08:58:35.360Z,99512.29
2018-08-14T09:03:40.457Z,99494.80
2018-08-14T09:08:45.278Z,99512.03
2018-08-14T09:13:50.183Z,99515.94
2018-08-14T09:18:55.000Z,99523.63
2018-08-14T09:23:59.733Z,99517.38
2018-08-14T09:29:04.646Z,99514.43
2018-08-14T09:34:09.444Z,99524.28
2018-08-14T09:39:14.685Z,99523.88
2018-08-14T09:44:19.481Z,99530.95
2018-08-14T09:49:24.201Z,99537.82
2018-08-14T09:54:29.000Z,99534.03
2018-08-14T09:59:33.935Z,99533.91
2018-08-14T10:04:43.878Z,99510.55
2018-08-14T10:09:49.117Z,99522.46
2018-08-14T10:14:59.089Z,99530.19
2018-08-14T10:20:04.106Z,99534.07
2018-08-14T10:25:10.126Z,99540.53
2018-08-14T10:30:16.915Z,99535.17
2018-08-14T10:35:21.728Z,99533.75
2018-08-14T10:40:26.550Z,99531.70
2018-08-14T10:45:31.301Z,99524.38
2018-08-14T10:50:35.987Z,99537.25
2018-08-14T10:55:40.779Z,99539.66
2018-08-14T11:00:45.687Z,99540.93
2018-08-14T11:05:50.499Z,99535.92
2018-08-14T11:11:00.227Z,99540.02
2018-08-14T11:16:05.025Z,99546.95
2018-08-14T11:21:10.133Z,99550.63
2018-08-14T11:26:14.831Z,99545.08
2018-08-14T11:31:19.474Z,99539.39
2018-08-14T11:36:24.239Z,99547.17
2018-08-14T11:41:29.149Z,99544.64
2018-08-14T11:46:33.971Z,99551.53
2018-08-14T11:51:38.915Z,99561.69
2018-08-14T11:56:43.536Z,99574.05
2018-08-14T12:01:48.377Z,99582.23
2018-08-14T12:06:53.310Z,99580.27
2018-08-14T12:11:58.052Z,99579.36
2018-08-14T12:17:02.741Z,99579.88
2018-08-14T12:22:07.966Z,99582.00
2018-08-14T12:27:12.762Z,99567.84
2018-08-14T12:32:17.504Z,99564.38
2018-08-14T12:37:22.293Z,99565.70
2018-08-14T12:42:27.020Z,99567.97
2018-08-14T12:47:31.775Z,99572.22
2018-08-14T12:52:36.544Z,99566.03
2018-08-14T12:57:41.530Z,99554.03
2018-08-14T13:02:46.334Z,99547.83
2018-08-14T13:13:23.222Z,99546.62
2018-08-14T13:18:27.939Z,99553.09
2018-08-14T13:23:32.669Z,99562.08
2018-08-14T13:28:37.403Z,99544.80
2018-08-14T13:33:42.248Z,99538.17
2018-08-14T13:38:47.028Z,99536.59
2018-08-14T13:43:51.850Z,99553.45
2018-08-14T13:48:56.530Z,99559.11
2018-08-14T13:54:01.270Z,99557.86
2018-08-14T13:59:06.111Z,99556.54
2018-08-14T14:04:10.900Z,99560.28
2018-08-14T14:09:15.558Z,99567.61
2018-08-14T14:14:20.301Z,99579.10
2018-08-14T14:19:25.032Z,99581.70
2018-08-14T14:24:29.810Z,99578.63
2018-08-14T14:29:34.668Z,99579.22
2018-08-14T14:34:39.500Z,99575.56
2018-08-14T14:39:44.481Z,99570.66
2018-08-14T14:44:49.223Z,99568.98
2018-08-14T14:49:53.933Z,99580.51
2018-08-14T14:54:58.651Z,99579.92
2018-08-14T15:00:03.510Z,99574.31
2018-08-14T15:05:08.414Z,99578.56
2018-08-14T15:10:13.256Z,99580.97
2018-08-14T15:15:18.036Z,99579.94
2018-08-14T15:20:24.143Z,99584.88
2018-08-14T15:25:29.788Z,99587.28
2018-08-14T15:30:34.499Z,99600.96
2018-08-14T15:35:39.336Z,99588.30
2018-08-14T15:40:44.232Z,99598.61
2018-08-14T15:45:49.199Z,99594.72
2018-08-14T15:50:53.870Z,99593.38
2018-08-14T15:55:58.684Z,99592.00
2018-08-14T16:01:03.442Z,99590.48
2018-08-14T16:06:08.408Z,99595.03
2018-08-14T16:16:21.546Z,99596.66
2018-08-14T16:21:26.430Z,99605.06
2018-08-14T16:26:31.141Z,99605.58
2018-08-14T16:31:35.926Z,99612.72
2018-08-14T16:36:40.911Z,99606.58
2018-08-14T16:41:45.595Z,99604.80
2018-08-14T16:46:50.553Z,99614.91
2018-08-14T16:51:55.164Z,99615.68
2018-08-14T16:57:00.085Z,99622.09
2018-08-14T17:02:04.838Z,99622.55
2018-08-14T17:07:09.715Z,99622.61
2018-08-14T17:12:14.622Z,99616.05
2018-08-14T17:17:19.303Z,99629.16
2018-08-14T17:22:24.061Z,99628.84
2018-08-14T17:27:28.771Z,99631.78
2018-08-14T17:32:33.592Z,99633.26
2018-08-14T17:37:38.714Z,99640.89
2018-08-14T17:42:43.684Z,99643.81
2018-08-14T17:47:49.493Z,99646.14
2018-08-14T17:52:54.968Z,99655.14
2018-08-14T17:57:59.733Z,99654.14
2018-08-14T18:03:08.730Z,99649.25
2018-08-14T18:08:13.794Z,99662.77
2018-08-14T18:13:18.691Z,99677.44
2018-08-14T18:18:23.660Z,99685.41
2018-08-14T18:23:28.479Z,99694.91
2018-08-14T18:28:33.233Z,99702.67
2018-08-14T18:33:38.094Z,99708.04
2018-08-14T18:38:42.801Z,99709.84
2018-08-14T18:43:47.641Z,99724.42
2018-08-14T18:48:52.442Z,99733.13
2018-08-14T18:53:57.244Z,99740.26
2018-08-14T18:59:02.077Z,99753.63
2018-08-14T19:04:06.977Z,99753.06
2018-08-14T19:09:11.803Z,99761.28
2018-08-14T19:14:16.531Z,99767.39
2018-08-14T19:19:21.437Z,99782.69
2018-08-14T19:24:26.170Z,99790.64
2018-08-14T19:29:30.996Z,99798.62
2018-08-14T19:34:35.752Z,99794.21
2018-08-14T19:39:40.653Z,99797.23
2018-08-14T19:44:45.395Z,99802.98
2018-08-14T19:49:50.251Z,99809.27
2018-08-14T19:54:55.795Z,99816.08
2018-08-14T20:00:00.764Z,99810.95
2018-08-14T20:05:07.778Z,99816.98
2018-08-14T20:10:13.436Z,99825.45
2018-08-14T20:15:24.293Z,99833.37
2018-08-14T20:20:29.199Z,99833.11
2018-08-14T20:25:33.986Z,99836.95
2018-08-14T20:30:38.796Z,99838.58
2018-08-14T20:35:43.811Z,99842.16
2018-08-14T20:40:48.680Z,99857.17
2018-08-14T20:45:53.516Z,99859.12
2018-08-14T20:50:58.762Z,99867.01
2018-08-14T20:56:03.786Z,99863.70
2018-08-14T21:01:08.659Z,99868.61
2018-08-14T21:06:13.501Z,99872.87
2018-08-14T21:11:18.359Z,99878.86
2018-08-14T21:16:25.529Z,99883.75
2018-08-14T21:21:30.308Z,99880.98
2018-08-14T21:26:35.069Z,99880.93
2018-08-14T21:31:39.918Z,99884.00
2018-08-14T21:36:44.653Z,99891.45
2018-08-14T21:41:50.082Z,99889.28
2018-08-14T21:46:54.874Z,99895.28
2018-08-14T21:51:59.977Z,99890.47
2018-08-14T21:57:04.759Z,99892.91
2018-08-14T22:02:09.871Z,99897.00
2018-08-14T22:07:14.742Z,99899.19
2018-08-14T22:12:19.690Z,99906.03
2018-08-14T22:17:24.388Z,99907.20
2018-08-14T22:22:29.171Z,99909.42
2018-08-14T22:27:33.897Z,99907.80
2018-08-14T22:32:38.713Z,99915.16
2018-08-14T22:37:43.504Z,99912.98
2018-08-14T22:42:48.303Z,99919.84
2018-08-14T22:47:53.102Z,99918.45
2018-08-14T22:52:57.871Z,99921.48
2018-08-14T22:58:02.588Z,99916.80
2018-08-14T23:03:07.374Z,99929.37
2018-08-14T23:08:12.138Z,99933.99
2018-08-14T23:13:17.011Z,99933.17
2018-08-14T23:18:21.811Z,99932.08
2018-08-14T23:23:26.462Z,99933.14
2018-08-14T23:28:31.246Z,99934.22
2018-08-14T23:33:35.924Z,99936.12
2018-08-14T23:38:40.634Z,99937.73
2018-08-14T23:43:45.336Z,99939.33
2018-08-14T23:48:50.193Z,99944.58
2018-08-14T23:53:55.003Z,99944.02
2018-08-14T23:58:59.688Z,99936.60
